sensor_id;sensor_type;location;lat;lon;timestamp;pressure;altitude;pressure_sealevel;temperature;humidity
42247;BME280;27913;42.722;23.268;2023-04-29T00:04:49;95066.94;;;7.11;61.27
42247;BME280;27913;42.722;23.268;2023-04-29T00:07:15;94809.94;;;5.44;60.66
42247;BME280;27913;42.722;23.268;2023-04-29T00:09:40;94877.69;;;5.87;60.96
42247;BME280;27913;42.722;23.268;2023-04-29T00:12:06;94953.34;;;6.39;61.06
42247;BME280;27913;42.722;23.268;2023-04-29T00:14:31;95001.88;;;6.75;61.01
42247;BME280;27913;42.722;23.268;2023-04-29T00:16:57;94986.03;;;6.68;60.97
42247;BME280;27913;42.722;23.268;2023-04-29T00:19:23;94857.63;;;5.79;60.90
42247;BME280;27913;42.722;23.268;2023-04-29T00:21:48;94837.06;;;5.85;60.50
42247;BME280;27913;42.722;23.268;2023-04-29T00:24:13;94987.81;;;6.93;60.43
42247;BME280;27913;42.722;23.268;2023-04-29T00:26:39;95044.84;;;7.31;60.59
42247;BME280;27913;42.722;23.268;2023-04-29T00:29:05;94951.88;;;6.70;60.23
42247;BME280;27913;42.722;23.268;2023-04-29T00:31:30;94939.81;;;6.69;59.97
42247;BME280;27913;42.722;23.268;2023-04-29T00:33:57;94991.06;;;7.03;60.05
42247;BME280;27913;42.722;23.268;2023-04-29T00:36:22;94927.72;;;6.76;60.40
42247;BME280;27913;42.722;23.268;2023-04-29T00:38:47;94858.50;;;6.38;60.99
42247;BME280;27913;42.722;23.268;2023-04-29T00:41:13;94971.31;;;7.09;61.00
42247;BME280;27913;42.722;23.268;2023-04-29T00:43:39;94883.78;;;6.63;60.85
42247;BME280;27913;42.722;23.268;2023-04-29T00:46:04;94933.38;;;7.05;61.23
42247;BME280;27913;42.722;23.268;2023-04-29T00:48:30;94818.19;;;6.24;60.88
42247;BME280;27913;42.722;23.268;2023-04-29T00:50:56;94935.38;;;6.86;60.37
42247;BME280;27913;42.722;23.268;2023-04-29T00:53:22;94802.38;;;6.09;59.67
42247;BME280;27913;42.722;23.268;2023-04-29T00:55:49;94866.00;;;6.42;59.58
42247;BME280;27913;42.722;23.268;2023-04-29T00:58:17;95077.47;;;7.77;59.78
42247;BME280;27913;42.722;23.268;2023-04-29T01:00:42;95078.94;;;7.79;60.27
42247;BME280;27913;42.722;23.268;2023-04-29T01:03:08;95078.59;;;7.82;60.28
42247;BME280;27913;42.722;23.268;2023-04-29T01:05:34;94999.03;;;7.43;61.13
42247;BME280;27913;42.722;23.268;2023-04-29T01:08:15;94961.13;;;7.22;61.74
42247;BME280;27913;42.722;23.268;2023-04-29T01:10:54;95062.25;;;7.89;61.64
42247;BME280;27913;42.722;23.268;2023-04-29T01:13:30;95062.91;;;7.82;62.00
42247;BME280;27913;42.722;23.268;2023-04-29T01:16:13;94912.81;;;6.93;62.45
42247;BME280;27913;42.722;23.268;2023-04-29T01:18:45;94985.81;;;7.28;62.80
42247;BME280;27913;42.722;23.268;2023-04-29T01:21:12;95058.81;;;7.80;62.83
42247;BME280;27913;42.722;23.268;2023-04-29T01:23:37;95058.19;;;7.69;62.87
42247;BME280;27913;42.722;23.268;2023-04-29T01:26:03;95040.25;;;7.49;63.22
42247;BME280;27913;42.722;23.268;2023-04-29T01:28:52;94989.44;;;6.85;64.11
42247;BME280;27913;42.722;23.268;2023-04-29T01:31:23;94987.34;;;6.64;65.17
42247;BME280;27913;42.722;23.268;2023-04-29T01:34:06;94998.28;;;6.59;65.80
42247;BME280;27913;42.722;23.268;2023-04-29T01:36:42;95061.19;;;6.83;66.21
42247;BME280;27913;42.722;23.268;2023-04-29T01:42:08;94759.41;;;4.50;66.86
42247;BME280;27913;42.722;23.268;2023-04-29T01:44:37;95045.13;;;6.36;67.31
42247;BME280;27913;42.722;23.268;2023-04-29T01:47:04;95064.72;;;6.48;67.01
42247;BME280;27913;42.722;23.268;2023-04-29T01:49:34;94748.06;;;4.59;66.68
42247;BME280;27913;42.722;23.268;2023-04-29T01:52:00;95055.59;;;6.61;66.59
42247;BME280;27913;42.722;23.268;2023-04-29T01:54:25;94860.78;;;5.48;66.43
42247;BME280;27913;42.722;23.268;2023-04-29T01:56:51;94889.25;;;5.76;66.34
42247;BME280;27913;42.722;23.268;2023-04-29T01:59:16;95052.69;;;6.81;66.28
42247;BME280;27913;42.722;23.268;2023-04-29T02:01:42;95035.63;;;6.43;66.13
42247;BME280;27913;42.722;23.268;2023-04-29T02:04:07;95081.63;;;6.27;66.62
42247;BME280;27913;42.722;23.268;2023-04-29T02:06:33;94911.91;;;4.98;68.19
42247;BME280;27913;42.722;23.268;2023-04-29T02:08:59;95073.41;;;5.79;68.77
42247;BME280;27913;42.722;23.268;2023-04-29T02:11:24;95006.22;;;5.19;68.84
42247;BME280;27913;42.722;23.268;2023-04-29T02:13:50;95078.47;;;5.54;69.94
42247;BME280;27913;42.722;23.268;2023-04-29T02:16:15;95065.91;;;5.49;70.50
42247;BME280;27913;42.722;23.268;2023-04-29T02:18:41;94935.25;;;4.54;70.83
42247;BME280;27913;42.722;23.268;2023-04-29T02:21:07;95067.03;;;5.20;71.56
42247;BME280;27913;42.722;23.268;2023-04-29T02:23:33;95063.75;;;5.18;71.80
42247;BME280;27913;42.722;23.268;2023-04-29T02:25:59;94818.84;;;3.65;71.68
42247;BME280;27913;42.722;23.268;2023-04-29T02:28:26;95062.25;;;5.15;72.17
42247;BME280;27913;42.722;23.268;2023-04-29T02:30:51;94976.78;;;4.56;72.41
42247;BME280;27913;42.722;23.268;2023-04-29T02:33:17;95057.81;;;4.89;72.89
42247;BME280;27913;42.722;23.268;2023-04-29T02:35:43;95057.44;;;4.84;73.12
42247;BME280;27913;42.722;23.268;2023-04-29T02:38:08;95065.72;;;4.79;73.22
42247;BME280;27913;42.722;23.268;2023-04-29T02:40:34;94958.69;;;3.99;73.35
42247;BME280;27913;42.722;23.268;2023-04-29T02:43:05;95061.69;;;4.67;73.26
42247;BME280;27913;42.722;23.268;2023-04-29T02:45:30;95046.06;;;4.67;73.46
42247;BME280;27913;42.722;23.268;2023-04-29T02:47:55;95060.00;;;4.76;73.41
42247;BME280;27913;42.722;23.268;2023-04-29T02:50:21;95066.78;;;4.87;73.21
42247;BME280;27913;42.722;23.268;2023-04-29T02:52:46;95065.69;;;4.98;72.97
42247;BME280;27913;42.722;23.268;2023-04-29T02:55:12;94815.13;;;3.49;72.21
42247;BME280;27913;42.722;23.268;2023-04-29T02:57:37;95011.88;;;4.52;72.22
42247;BME280;27913;42.722;23.268;2023-04-29T03:00:03;95096.22;;;4.87;72.66
42247;BME280;27913;42.722;23.268;2023-04-29T03:02:29;94753.06;;;2.90;72.85
42247;BME280;27913;42.722;23.268;2023-04-29T03:04:54;94905.22;;;4.05;72.45
42247;BME280;27913;42.722;23.268;2023-04-29T03:07:20;95079.41;;;5.18;72.13
42247;BME280;27913;42.722;23.268;2023-04-29T03:09:45;95072.09;;;5.22;71.84
42247;BME280;27913;42.722;23.268;2023-04-29T03:12:11;94787.69;;;3.55;71.06
42247;BME280;27913;42.722;23.268;2023-04-29T03:14:37;94976.59;;;4.76;70.54
42247;BME280;27913;42.722;23.268;2023-04-29T03:17:02;95073.44;;;5.52;70.40
42247;BME280;27913;42.722;23.268;2023-04-29T03:19:29;94766.47;;;3.60;70.15
42247;BME280;27913;42.722;23.268;2023-04-29T03:21:54;95089.63;;;5.64;70.19
42247;BME280;27913;42.722;23.268;2023-04-29T03:24:20;94786.66;;;3.66;70.06
42247;BME280;27913;42.722;23.268;2023-04-29T03:26:46;94974.41;;;4.89;69.94
42247;BME280;27913;42.722;23.268;2023-04-29T03:29:11;94995.88;;;5.10;69.79
42247;BME280;27913;42.722;23.268;2023-04-29T05:35:42;94918.56;;;5.53;71.41
42247;BME280;27913;42.722;23.268;2023-04-29T05:38:07;94976.88;;;6.31;70.25
42247;BME280;27913;42.722;23.268;2023-04-29T05:40:33;95063.19;;;6.97;68.83
42247;BME280;27913;42.722;23.268;2023-04-29T05:42:58;95086.06;;;6.95;68.28
42247;BME280;27913;42.722;23.268;2023-04-29T05:45:24;95077.22;;;6.96;69.36
42247;BME280;27913;42.722;23.268;2023-04-29T05:47:50;94938.91;;;6.01;69.32
42247;BME280;27913;42.722;23.268;2023-04-29T05:50:15;95086.03;;;7.04;68.37
42247;BME280;27913;42.722;23.268;2023-04-29T05:52:41;94915.41;;;6.01;68.18
42247;BME280;27913;42.722;23.268;2023-04-29T05:55:06;95077.56;;;7.18;67.28
42247;BME280;27913;42.722;23.268;2023-04-29T05:57:32;95074.94;;;7.27;67.00
42247;BME280;27913;42.722;23.268;2023-04-29T05:59:57;95031.78;;;6.72;66.93
42247;BME280;27913;42.722;23.268;2023-04-29T06:02:25;95085.72;;;7.07;67.24
42247;BME280;27913;42.722;23.268;2023-04-29T06:04:50;95027.13;;;6.33;68.55
42247;BME280;27913;42.722;23.268;2023-04-29T06:07:16;94922.91;;;6.04;68.67
42247;BME280;27913;42.722;23.268;2023-04-29T06:09:42;94931.13;;;6.26;67.50
42247;BME280;27913;42.722;23.268;2023-04-29T06:12:08;95076.88;;;7.49;66.53
42247;BME280;27913;42.722;23.268;2023-04-29T06:14:34;95080.94;;;7.69;65.81
42247;BME280;27913;42.722;23.268;2023-04-29T06:16:59;95070.78;;;7.57;66.30
42247;BME280;27913;42.722;23.268;2023-04-29T06:19:25;95014.47;;;7.13;66.94
42247;BME280;27913;42.722;23.268;2023-04-29T06:21:50;94828.31;;;6.19;66.11
42247;BME280;27913;42.722;23.268;2023-04-29T06:24:16;95013.28;;;7.32;66.36
42247;BME280;27913;42.722;23.268;2023-04-29T06:26:41;94963.78;;;7.14;67.20
42247;BME280;27913;42.722;23.268;2023-04-29T06:29:08;95070.34;;;8.10;66.22
42247;BME280;27913;42.722;23.268;2023-04-29T06:31:33;95077.91;;;8.37;64.02
42247;BME280;27913;42.722;23.268;2023-04-29T06:33:59;95078.22;;;8.42;64.04
42247;BME280;27913;42.722;23.268;2023-04-29T06:36:24;95080.75;;;8.67;64.33
42247;BME280;27913;42.722;23.268;2023-04-29T06:38:51;94892.28;;;7.70;63.31
42247;BME280;27913;42.722;23.268;2023-04-29T06:41:17;94830.41;;;7.46;62.82
42247;BME280;27913;42.722;23.268;2023-04-29T06:43:42;95077.56;;;9.04;63.23
42247;BME280;27913;42.722;23.268;2023-04-29T06:46:08;94984.00;;;8.49;62.67
42247;BME280;27913;42.722;23.268;2023-04-29T06:48:34;95047.41;;;9.00;61.98
42247;BME280;27913;42.722;23.268;2023-04-29T06:51:00;95061.09;;;9.34;61.99
42247;BME280;27913;42.722;23.268;2023-04-29T06:53:26;94964.91;;;8.87;62.34
42247;BME280;27913;42.722;23.268;2023-04-29T06:55:51;95073.03;;;9.75;61.83
42247;BME280;27913;42.722;23.268;2023-04-29T06:58:18;94959.72;;;9.33;60.12
42247;BME280;27913;42.722;23.268;2023-04-29T07:00:45;95051.19;;;9.89;59.18
42247;BME280;27913;42.722;23.268;2023-04-29T07:03:11;94930.97;;;9.39;58.49
42247;BME280;27913;42.722;23.268;2023-04-29T07:05:37;94931.41;;;9.43;57.58
42247;BME280;27913;42.722;23.268;2023-04-29T07:08:09;94836.03;;;9.21;56.71
42247;BME280;27913;42.722;23.268;2023-04-29T07:10:34;94992.00;;;10.24;56.11
42247;BME280;27913;42.722;23.268;2023-04-29T07:13:00;94749.16;;;8.78;55.32
42247;BME280;27913;42.722;23.268;2023-04-29T07:15:26;94958.53;;;9.96;54.46
42247;BME280;27913;42.722;23.268;2023-04-29T07:17:52;94953.38;;;9.72;55.07
42247;BME280;27913;42.722;23.268;2023-04-29T07:20:17;94949.63;;;10.12;55.68
42247;BME280;27913;42.722;23.268;2023-04-29T07:22:43;95026.13;;;10.98;54.71
42247;BME280;27913;42.722;23.268;2023-04-29T07:25:09;95040.72;;;11.22;53.49
42247;BME280;27913;42.722;23.268;2023-04-29T07:27:35;95008.94;;;11.24;52.73
42247;BME280;27913;42.722;23.268;2023-04-29T07:30:01;94959.94;;;11.30;51.85
42247;BME280;27913;42.722;23.268;2023-04-29T07:32:27;94865.72;;;10.83;50.86
42247;BME280;27913;42.722;23.268;2023-04-29T07:34:53;95033.22;;;12.12;50.78
42247;BME280;27913;42.722;23.268;2023-04-29T07:37:19;94951.63;;;11.62;50.38
42247;BME280;27913;42.722;23.268;2023-04-29T07:39:44;95024.00;;;12.01;50.13
42247;BME280;27913;42.722;23.268;2023-04-29T07:42:10;95035.72;;;11.99;49.56
42247;BME280;27913;42.722;23.268;2023-04-29T07:44:35;95035.66;;;11.85;49.46
42247;BME280;27913;42.722;23.268;2023-04-29T07:47:01;94984.19;;;11.47;49.73
42247;BME280;27913;42.722;23.268;2023-04-29T07:49:27;95038.78;;;12.02;49.84
42247;BME280;27913;42.722;23.268;2023-04-29T07:51:52;95035.25;;;12.17;48.95
42247;BME280;27913;42.722;23.268;2023-04-29T07:54:18;95031.63;;;12.25;47.82
42247;BME280;27913;42.722;23.268;2023-04-29T07:56:44;95007.28;;;12.23;46.78
42247;BME280;27913;42.722;23.268;2023-04-29T07:59:10;94967.63;;;12.02;46.14
42247;BME280;27913;42.722;23.268;2023-04-29T08:01:35;94998.81;;;12.34;45.54
42247;BME280;27913;42.722;23.268;2023-04-29T08:04:01;94943.38;;;12.14;45.75
42247;BME280;27913;42.722;23.268;2023-04-29T08:06:26;95017.69;;;12.44;45.95
42247;BME280;27913;42.722;23.268;2023-04-29T08:08:53;94987.06;;;12.37;44.71
42247;BME280;27913;42.722;23.268;2023-04-29T08:11:20;94966.38;;;12.40;45.09
42247;BME280;27913;42.722;23.268;2023-04-29T08:13:46;94994.25;;;12.84;44.41
42247;BME280;27913;42.722;23.268;2023-04-29T08:16:12;95009.72;;;13.07;44.67
42247;BME280;27913;42.722;23.268;2023-04-29T08:18:38;94834.66;;;11.98;44.03
42247;BME280;27913;42.722;23.268;2023-04-29T08:21:04;94833.09;;;12.17;44.78
42247;BME280;27913;42.722;23.268;2023-04-29T08:23:30;95000.97;;;13.27;43.69
42247;BME280;27913;42.722;23.268;2023-04-29T08:25:57;94908.56;;;12.79;43.47
42247;BME280;27913;42.722;23.268;2023-04-29T08:28:23;94950.38;;;13.16;43.55
42247;BME280;27913;42.722;23.268;2023-04-29T08:30:49;94888.66;;;12.97;42.70
42247;BME280;27913;42.722;23.268;2023-04-29T08:33:15;94939.59;;;13.52;42.66
42247;BME280;27913;42.722;23.268;2023-04-29T08:35:41;95001.28;;;13.92;41.78
42247;BME280;27913;42.722;23.268;2023-04-29T08:38:07;94992.03;;;13.55;41.88
42247;BME280;27913;42.722;23.268;2023-04-29T08:40:41;94986.34;;;13.31;42.60
42247;BME280;27913;42.722;23.268;2023-04-29T08:43:07;95000.56;;;13.44;42.70
42247;BME280;27913;42.722;23.268;2023-04-29T08:45:34;94900.44;;;13.08;42.30
42247;BME280;27913;42.722;23.268;2023-04-29T08:48:02;94963.13;;;13.67;42.10
42247;BME280;27913;42.722;23.268;2023-04-29T08:50:29;94924.56;;;13.32;41.63
42247;BME280;27913;42.722;23.268;2023-04-29T08:52:55;94934.94;;;13.34;41.48
42247;BME280;27913;42.722;23.268;2023-04-29T08:55:21;94918.44;;;13.59;41.78
42247;BME280;27913;42.722;23.268;2023-04-29T08:57:49;94824.22;;;13.32;40.84
42247;BME280;27913;42.722;23.268;2023-04-29T09:00:15;94930.09;;;14.36;39.74
42247;BME280;27913;42.722;23.268;2023-04-29T09:02:47;94869.16;;;14.24;39.95
42247;BME280;27913;42.722;23.268;2023-04-29T09:05:14;94977.50;;;15.09;38.97
42247;BME280;27913;42.722;23.268;2023-04-29T09:07:41;94783.91;;;13.96;38.38
42247;BME280;27913;42.722;23.268;2023-04-29T09:10:07;94838.03;;;14.52;38.49
42247;BME280;27913;42.722;23.268;2023-04-29T09:12:33;94947.06;;;14.93;38.69
42247;BME280;27913;42.722;23.268;2023-04-29T09:15:00;94924.59;;;14.37;39.28
42247;BME280;27913;42.722;23.268;2023-04-29T09:17:46;94851.50;;;14.11;39.59
42247;BME280;27913;42.722;23.268;2023-04-29T09:20:24;94963.50;;;14.69;39.55
42247;BME280;27913;42.722;23.268;2023-04-29T09:22:55;94827.06;;;13.83;40.34
42247;BME280;27913;42.722;23.268;2023-04-29T09:25:21;94779.28;;;13.52;39.80
42247;BME280;27913;42.722;23.268;2023-04-29T09:27:47;94762.13;;;13.62;40.26
42247;BME280;27913;42.722;23.268;2023-04-29T09:30:13;94954.53;;;15.03;39.77
42247;BME280;27913;42.722;23.268;2023-04-29T09:32:41;94810.16;;;14.49;39.50
42247;BME280;27913;42.722;23.268;2023-04-29T09:35:38;94795.75;;;14.45;39.24
42247;BME280;27913;42.722;23.268;2023-04-29T09:38:12;94896.72;;;15.18;38.80
42247;BME280;27913;42.722;23.268;2023-04-29T09:40:40;94893.75;;;15.33;38.04
42247;BME280;27913;42.722;23.268;2023-04-29T09:43:14;94884.19;;;15.51;37.85
42247;BME280;27913;42.722;23.268;2023-04-29T09:45:42;94922.59;;;15.98;36.98
42247;BME280;27913;42.722;23.268;2023-04-29T09:48:10;94914.81;;;15.85;37.62
42247;BME280;27913;42.722;23.268;2023-04-29T09:50:37;94884.81;;;15.84;36.35
42247;BME280;27913;42.722;23.268;2023-04-29T09:53:04;94908.22;;;16.06;35.74
42247;BME280;27913;42.722;23.268;2023-04-29T09:55:30;94891.66;;;16.11;35.81
42247;BME280;27913;42.722;23.268;2023-04-29T09:57:56;94882.44;;;15.94;36.06
42247;BME280;27913;42.722;23.268;2023-04-29T10:00:22;94928.31;;;16.33;35.93
42247;BME280;27913;42.722;23.268;2023-04-29T10:02:48;94864.25;;;15.98;35.34
42247;BME280;27913;42.722;23.268;2023-04-29T10:05:15;94917.06;;;16.49;35.43
42247;BME280;27913;42.722;23.268;2023-04-29T10:07:41;94893.66;;;16.58;34.35
42247;BME280;27913;42.722;23.268;2023-04-29T10:10:08;94810.69;;;16.08;33.94
42247;BME280;27913;42.722;23.268;2023-04-29T10:12:35;94906.81;;;16.65;33.84
42247;BME280;27913;42.722;23.268;2023-04-29T10:15:28;94782.72;;;15.93;31.94
42247;BME280;27913;42.722;23.268;2023-04-29T10:18:19;94804.28;;;16.28;32.33
42247;BME280;27913;42.722;23.268;2023-04-29T10:20:46;94801.28;;;16.24;31.82
42247;BME280;27913;42.722;23.268;2023-04-29T10:23:12;94751.97;;;16.04;32.40
42247;BME280;27913;42.722;23.268;2023-04-29T10:25:43;94897.09;;;16.59;35.53
42247;BME280;27913;42.722;23.268;2023-04-29T10:28:12;94814.63;;;15.87;35.23
42247;BME280;27913;42.722;23.268;2023-04-29T10:30:39;94898.22;;;16.08;35.27
42247;BME280;27913;42.722;23.268;2023-04-29T10:33:08;94805.75;;;15.62;34.81
42247;BME280;27913;42.722;23.268;2023-04-29T10:35:35;94795.22;;;15.25;33.32
42247;BME280;27913;42.722;23.268;2023-04-29T10:38:16;94836.91;;;15.67;34.12
42247;BME280;27913;42.722;23.268;2023-04-29T10:40:46;94889.69;;;15.87;36.32
42247;BME280;27913;42.722;23.268;2023-04-29T10:43:13;94836.56;;;15.63;36.76
42247;BME280;27913;42.722;23.268;2023-04-29T10:45:39;94730.28;;;14.40;36.52
42247;BME280;27913;42.722;23.268;2023-04-29T10:48:12;94831.13;;;15.20;36.20
42247;BME280;27913;42.722;23.268;2023-04-29T10:53:16;94752.63;;;15.26;35.85
42247;BME280;27913;42.722;23.268;2023-04-29T10:55:47;94792.13;;;15.77;35.04
42247;BME280;27913;42.722;23.268;2023-04-29T10:58:41;94861.69;;;16.53;33.48
42247;BME280;27913;42.722;23.268;2023-04-29T11:01:17;94859.69;;;16.48;31.04
42247;BME280;27913;42.722;23.268;2023-04-29T11:04:01;94821.44;;;16.13;30.42
42247;BME280;27913;42.722;23.268;2023-04-29T11:12:08;94859.38;;;16.14;31.70
42247;BME280;27913;42.722;23.268;2023-04-29T11:17:12;94699.63;;;15.26;29.52
42247;BME280;27913;42.722;23.268;2023-04-29T11:19:44;94872.00;;;16.00;29.41
42247;BME280;27913;42.722;23.268;2023-04-29T11:22:29;94779.47;;;15.11;30.72
42247;BME280;27913;42.722;23.268;2023-04-29T11:27:32;94694.66;;;14.99;31.06
42247;BME280;27913;42.722;23.268;2023-04-29T11:29:58;94822.56;;;15.87;29.96
42247;BME280;27913;42.722;23.268;2023-04-29T11:32:26;94846.66;;;16.04;29.70
42247;BME280;27913;42.722;23.268;2023-04-29T11:34:52;94846.09;;;16.02;29.17
42247;BME280;27913;42.722;23.268;2023-04-29T11:37:22;94862.63;;;15.97;29.65
42247;BME280;27913;42.722;23.268;2023-04-29T11:39:48;94861.91;;;15.90;29.70
42247;BME280;27913;42.722;23.268;2023-04-29T11:42:18;94715.69;;;14.94;30.16
42247;BME280;27913;42.722;23.268;2023-04-29T11:44:44;94870.16;;;15.81;30.37
42247;BME280;27913;42.722;23.268;2023-04-29T11:47:10;94862.28;;;15.75;30.32
42247;BME280;27913;42.722;23.268;2023-04-29T11:49:35;94870.03;;;15.76;28.80
42247;BME280;27913;42.722;23.268;2023-04-29T11:52:02;94814.88;;;15.36;29.09
42247;BME280;27913;42.722;23.268;2023-04-29T11:54:31;94793.59;;;15.24;29.59
42247;BME280;27913;42.722;23.268;2023-04-29T11:56:57;94798.66;;;15.44;30.30
42247;BME280;27913;42.722;23.268;2023-04-29T11:59:23;94793.97;;;15.46;30.90
42247;BME280;27913;42.722;23.268;2023-04-29T12:01:51;94823.72;;;15.79;31.05
42247;BME280;27913;42.722;23.268;2023-04-29T12:04:17;94804.56;;;15.77;31.49
42247;BME280;27913;42.722;23.268;2023-04-29T12:06:44;94837.16;;;16.27;31.71
42247;BME280;27913;42.722;23.268;2023-04-29T12:09:09;94801.59;;;15.85;31.38
42247;BME280;27913;42.722;23.268;2023-04-29T12:11:38;94846.00;;;16.09;32.69
42247;BME280;27913;42.722;23.268;2023-04-29T12:14:04;94843.50;;;16.26;31.79
42247;BME280;27913;42.722;23.268;2023-04-29T12:16:32;94680.97;;;15.21;30.83
42247;BME280;27913;42.722;23.268;2023-04-29T12:18:58;94756.72;;;15.72;31.14
42247;BME280;27913;42.722;23.268;2023-04-29T12:21:25;94841.31;;;16.35;31.14
42247;BME280;27913;42.722;23.268;2023-04-29T12:23:52;94778.75;;;16.15;30.34
42247;BME280;27913;42.722;23.268;2023-04-29T12:26:18;94782.09;;;16.10;31.45
42247;BME280;27913;42.722;23.268;2023-04-29T12:28:45;94761.84;;;15.97;31.99
42247;BME280;27913;42.722;23.268;2023-04-29T12:31:13;94749.28;;;15.92;32.39
42247;BME280;27913;42.722;23.268;2023-04-29T12:33:42;94829.34;;;16.44;32.19
42247;BME280;27913;42.722;23.268;2023-04-29T12:36:17;94657.06;;;15.40;32.83
42247;BME280;27913;42.722;23.268;2023-04-29T12:38:44;94821.41;;;16.44;32.31
42247;BME280;27913;42.722;23.268;2023-04-29T12:41:11;94814.81;;;16.47;31.93
42247;BME280;27913;42.722;23.268;2023-04-29T12:43:38;94823.34;;;16.49;31.70
42247;BME280;27913;42.722;23.268;2023-04-29T12:46:06;94824.94;;;16.38;32.12
42247;BME280;27913;42.722;23.268;2023-04-29T12:48:37;94661.41;;;15.34;31.92
42247;BME280;27913;42.722;23.268;2023-04-29T12:51:03;94770.13;;;16.08;32.15
42247;BME280;27913;42.722;23.268;2023-04-29T12:53:29;94711.78;;;15.77;32.60
42247;BME280;27913;42.722;23.268;2023-04-29T12:55:55;94811.91;;;16.48;32.48
42247;BME280;27913;42.722;23.268;2023-04-29T12:58:21;94820.81;;;16.54;32.65
42247;BME280;27913;42.722;23.268;2023-04-29T13:00:47;94688.16;;;15.87;32.39
42247;BME280;27913;42.722;23.268;2023-04-29T13:03:12;94568.94;;;15.32;31.96
42247;BME280;27913;42.722;23.268;2023-04-29T13:05:38;94758.06;;;16.60;32.33
42247;BME280;27913;42.722;23.268;2023-04-29T13:08:04;94808.03;;;16.99;32.80
42247;BME280;27913;42.722;23.268;2023-04-29T13:10:31;94762.09;;;16.86;33.00
42247;BME280;27913;42.722;23.268;2023-04-29T13:12:57;94803.53;;;17.23;32.68
42247;BME280;27913;42.722;23.268;2023-04-29T13:15:22;94804.91;;;17.14;32.90
42247;BME280;27913;42.722;23.268;2023-04-29T13:17:48;94749.03;;;16.61;33.32
42247;BME280;27913;42.722;23.268;2023-04-29T13:20:13;94724.56;;;16.47;33.16
42247;BME280;27913;42.722;23.268;2023-04-29T13:22:39;94793.00;;;17.05;33.46
42247;BME280;27913;42.722;23.268;2023-04-29T13:25:07;94790.69;;;17.32;33.35
42247;BME280;27913;42.722;23.268;2023-04-29T13:27:33;94666.28;;;16.76;33.16
